Time;durP1;ratioP1;P1;durP2;ratioP2;P2;SDS_P1;SDS_P2;PMS_P1;PMS_P2;Temp;Humidity;BMP_temperature;BMP_pressure;BME280_temperature;BME280_humidity;BME280_pressure;Samples;Min_cycle;Max_cycle;Signal;HPM_P1;HPM_P2
2023/06/14 00:00:46;;;;;;;94.57;89.78;;;;;;;;;;5033114;28;20029;-55
2023/06/14 00:03:11;;;;;;;102.45;97.32;;;;;;;;;;5035024;28;20624;-55
2023/06/14 00:05:42;;;;;;;104.75;99.50;;;;;;;;;;5035374;28;20234;-53
2023/06/14 00:08:09;;;;;;;98.15;92.93;;;;;;;;;;5034076;28;20370;-54
2023/06/14 00:10:35;;;;;;;98.07;93.22;;;;;;;;;;5034501;28;20052;-54
2023/06/14 00:13:04;;;;;;;97.75;92.85;;;;;;;;;;5036465;28;20071;-65
2023/06/14 00:15:31;;;;;;;104.88;99.63;;;;;;;;;;5033916;28;20401;-66
2023/06/14 00:18:00;;;;;;;103.50;98.20;;;;;;;;;;5042246;28;20061;-66
2023/06/14 00:20:27;;;;;;;94.53;89.82;;;;;;;;;;5034088;28;20037;-66
2023/06/14 00:22:53;;;;;;;104.25;99.05;;;;;;;;;;5034001;28;20518;-66
2023/06/14 00:25:19;;;;;;;105.10;99.85;;;;;;;;;;5032485;28;20123;-66
2023/06/14 00:27:45;;;;;;;102.40;97.35;;;;;;;;;;5036326;28;20120;-65
2023/06/14 00:30:10;;;;;;;99.28;94.25;;;;;;;;;;5032238;28;20037;-65
2023/06/14 00:32:36;;;;;;;94.07;89.40;;;;;;;;;;5033001;28;20040;-65
2023/06/14 00:35:01;;;;;;;87.20;82.82;;;;;;;;;;5032999;28;20025;-65
2023/06/14 00:37:26;;;;;;;92.18;87.60;;;;;;;;;;5035449;28;20550;-65
2023/06/14 00:39:52;;;;;;;80.40;76.20;;;;;;;;;;5033227;28;20045;-65
2023/06/14 00:42:27;;;;;;;74.47;70.72;;;;;;;;;;5033692;28;20136;-66
2023/06/14 00:44:53;;;;;;;65.28;61.97;;;;;;;;;;5037414;28;20325;-66
2023/06/14 00:47:19;;;;;;;77.95;73.97;;;;;;;;;;5035920;28;20040;-67
2023/06/14 00:49:49;;;;;;;73.50;69.80;;;;;;;;;;5032523;28;20441;-67
2023/06/14 00:52:16;;;;;;;64.05;60.67;;;;;;;;;;5034204;28;20056;-67
2023/06/14 00:54:42;;;;;;;63.50;60.08;;;;;;;;;;5034022;28;20279;-56
2023/06/14 00:57:08;;;;;;;62.38;59.25;;;;;;;;;;5035651;28;20835;-56
2023/06/14 00:59:41;;;;;;;57.35;54.40;;;;;;;;;;5034404;28;20079;-56
2023/06/14 01:02:07;;;;;;;46.22;43.85;;;;;;;;;;5033763;28;20036;-54
2023/06/14 01:04:32;;;;;;;47.50;45.03;;;;;;;;;;5035426;28;20104;-56
2023/06/14 01:07:20;;;;;;;42.53;40.33;;;;;;;;;;5040952;28;20051;-53
2023/06/14 01:10:35;;;;;;;43.60;41.35;;;;;;;;;;5030593;28;20498;-54
2023/06/14 01:13:15;;;;;;;35.20;33.38;;;;;;;;;;5006558;28;20040;-56
2023/06/14 01:15:43;;;;;;;39.33;37.28;;;;;;;;;;5033541;28;20041;-55
2023/06/14 01:18:17;;;;;;;41.50;39.38;;;;;;;;;;5033921;28;20083;-56
2023/06/14 01:20:44;;;;;;;40.15;38.00;;;;;;;;;;5019570;28;20455;-54
2023/06/14 01:23:13;;;;;;;42.03;39.60;;;;;;;;;;5031781;28;20431;-55
2023/06/14 01:25:40;;;;;;;43.38;41.15;;;;;;;;;;5034252;28;20120;-52
2023/06/14 01:28:11;;;;;;;49.10;46.38;;;;;;;;;;5033150;28;20366;-52
2023/06/14 01:30:38;;;;;;;43.67;41.42;;;;;;;;;;5034695;28;20098;-55
2023/06/14 01:33:04;;;;;;;39.83;37.78;;;;;;;;;;5033220;28;20036;-54
2023/06/14 01:35:30;;;;;;;45.13;42.78;;;;;;;;;;5032794;28;20067;-55
2023/06/14 01:37:56;;;;;;;36.60;34.47;;;;;;;;;;5032585;28;20037;-54
2023/06/14 01:40:22;;;;;;;44.05;41.75;;;;;;;;;;5032904;28;20041;-53
2023/06/14 01:42:49;;;;;;;43.83;41.53;;;;;;;;;;5034741;28;20043;-55
2023/06/14 01:45:16;;;;;;;40.53;38.40;;;;;;;;;;5032526;28;20041;-51
2023/06/14 01:47:42;;;;;;;39.15;37.08;;;;;;;;;;5031106;28;20132;-55
2023/06/14 01:50:07;;;;;;;43.03;40.72;;;;;;;;;;5031833;28;20128;-55
2023/06/14 01:52:33;;;;;;;46.83;44.42;;;;;;;;;;5035048;28;20473;-56
2023/06/14 01:55:01;;;;;;;38.67;36.65;;;;;;;;;;5035170;28;20067;-56
2023/06/14 01:57:27;;;;;;;46.00;43.60;;;;;;;;;;5031195;28;20420;-56
2023/06/14 01:59:52;;;;;;;44.25;42.00;;;;;;;;;;5032490;28;20036;-55
2023/06/14 02:02:18;;;;;;;41.30;39.17;;;;;;;;;;5031704;28;20091;-66
2023/06/14 02:04:43;;;;;;;42.17;39.92;;;;;;;;;;5033057;28;20048;-66
2023/06/14 02:07:08;;;;;;;45.40;42.97;;;;;;;;;;5031997;28;20041;-66
2023/06/14 02:09:37;;;;;;;39.80;37.67;;;;;;;;;;5032732;28;20029;-66
2023/06/14 02:12:02;;;;;;;33.17;31.42;;;;;;;;;;5032069;28;20045;-66
2023/06/14 02:14:28;;;;;;;34.08;32.25;;;;;;;;;;5033518;28;20475;-66
2023/06/14 02:16:53;;;;;;;31.45;29.77;;;;;;;;;;5038490;28;20079;-66
2023/06/14 02:19:19;;;;;;;33.70;31.90;;;;;;;;;;5036898;28;20033;-66
2023/06/14 02:21:45;;;;;;;35.10;33.13;;;;;;;;;;5036176;28;20041;-66
2023/06/14 02:24:11;;;;;;;32.28;30.52;;;;;;;;;;5035458;28;20045;-56
2023/06/14 02:26:41;;;;;;;32.30;30.48;;;;;;;;;;5038332;28;20088;-55
2023/06/14 02:29:09;;;;;;;33.97;32.17;;;;;;;;;;5039229;28;20470;-57
2023/06/14 02:31:35;;;;;;;33.33;31.60;;;;;;;;;;5036895;28;20037;-56
2023/06/14 02:34:00;;;;;;;35.28;33.45;;;;;;;;;;5038319;28;20102;-56
2023/06/14 02:36:26;;;;;;;32.78;31.05;;;;;;;;;;5032140;28;20456;-55
2023/06/14 02:38:53;;;;;;;35.80;33.88;;;;;;;;;;5035471;28;20080;-55
2023/06/14 02:41:19;;;;;;;38.63;36.60;;;;;;;;;;5037750;28;20366;-66
2023/06/14 02:43:44;;;;;;;36.72;34.75;;;;;;;;;;5033742;28;20037;-56
2023/06/14 02:46:11;;;;;;;36.80;34.85;;;;;;;;;;5033619;28;20033;-65
2023/06/14 02:48:36;;;;;;;35.72;33.88;;;;;;;;;;5038818;28;20040;-57
2023/06/14 02:51:02;;;;;;;36.30;34.42;;;;;;;;;;5035050;28;20467;-55
2023/06/14 02:53:27;;;;;;;35.85;34.00;;;;;;;;;;5038011;28;20041;-54
2023/06/14 02:55:52;;;;;;;34.47;32.47;;;;;;;;;;5035984;28;20119;-56
2023/06/14 02:58:18;;;;;;;35.72;33.90;;;;;;;;;;5037703;28;20425;-66
2023/06/14 03:00:44;;;;;;;35.85;33.97;;;;;;;;;;5036622;28;20036;-65
2023/06/14 03:03:13;;;;;;;35.58;33.72;;;;;;;;;;5035958;28;20371;-65
2023/06/14 03:05:45;;;;;;;35.13;33.22;;;;;;;;;;5035209;28;20463;-56
2023/06/14 03:08:16;;;;;;;32.45;30.75;;;;;;;;;;5035760;28;20083;-55
2023/06/14 03:10:43;;;;;;;;;;;;;;;;;;5036553;28;20368;-54
2023/06/14 03:13:08;;;;;;;22.42;21.10;;;;;;;;;;5033094;28;19963;-57
2023/06/14 03:15:34;;;;;;;28.20;26.67;;;;;;;;;;5035466;28;20061;-66
2023/06/14 03:18:01;;;;;;;27.83;26.33;;;;;;;;;;5036191;28;20037;-66
2023/06/14 03:20:28;;;;;;;28.83;27.30;;;;;;;;;;5036122;28;20122;-66
2023/06/14 03:22:54;;;;;;;27.67;26.08;;;;;;;;;;5035650;28;20140;-66
2023/06/14 03:25:21;;;;;;;28.33;26.73;;;;;;;;;;5036677;28;20495;-66
2023/06/14 03:27:47;;;;;;;26.83;25.42;;;;;;;;;;5037479;28;20430;-66
2023/06/14 03:30:12;;;;;;;28.95;27.35;;;;;;;;;;5034321;28;20261;-65
2023/06/14 03:32:38;;;;;;;27.95;26.45;;;;;;;;;;5034216;28;20120;-65
2023/06/14 03:35:03;;;;;;;29.70;28.10;;;;;;;;;;5034098;28;20061;-65
2023/06/14 03:37:29;;;;;;;28.70;27.17;;;;;;;;;;5034477;28;20076;-65
2023/06/14 03:39:54;;;;;;;28.90;27.35;;;;;;;;;;5034094;28;20044;-65
2023/06/14 03:42:20;;;;;;;29.65;27.85;;;;;;;;;;5031890;28;20103;-55
2023/06/14 03:44:45;;;;;;;25.13;23.65;;;;;;;;;;5037700;28;20074;-54
2023/06/14 03:47:10;;;;;;;28.02;26.52;;;;;;;;;;5037390;28;20149;-55
2023/06/14 03:49:36;;;;;;;24.58;23.25;;;;;;;;;;5035014;28;20123;-51
2023/06/14 03:52:03;;;;;;;23.35;22.00;;;;;;;;;;5036364;28;20079;-55
2023/06/14 03:54:29;;;;;;;23.50;22.25;;;;;;;;;;5033364;28;20559;-55
2023/06/14 03:56:56;;;;;;;23.13;21.77;;;;;;;;;;5034345;28;20041;-55
2023/06/14 03:59:22;;;;;;;22.83;21.60;;;;;;;;;;5035895;28;20470;-65
2023/06/14 04:01:48;;;;;;;21.48;20.27;;;;;;;;;;5033108;28;20041;-65
2023/06/14 04:04:16;;;;;;;24.45;23.10;;;;;;;;;;5034793;28;20033;-56
2023/06/14 04:06:42;;;;;;;23.13;21.85;;;;;;;;;;5035916;28;20055;-56
2023/06/14 04:09:08;;;;;;;23.80;21.50;;;;;;;;;;5035240;28;20025;-56
2023/06/14 04:11:34;;;;;;;21.20;19.98;;;;;;;;;;5034415;28;20044;-55
2023/06/14 04:14:00;;;;;;;21.73;20.52;;;;;;;;;;5036348;28;20368;-67
2023/06/14 04:16:26;;;;;;;23.38;21.95;;;;;;;;;;5034717;28;20044;-55
2023/06/14 04:18:52;;;;;;;23.40;22.00;;;;;;;;;;5036310;28;20518;-56
2023/06/14 04:21:18;;;;;;;22.98;21.75;;;;;;;;;;5035675;28;20513;-55
2023/06/14 04:23:44;;;;;;;22.17;20.90;;;;;;;;;;5033271;28;20052;-56
2023/06/14 04:26:10;;;;;;;24.40;23.10;;;;;;;;;;5036798;28;20495;-55
2023/06/14 04:28:40;;;;;;;21.67;20.45;;;;;;;;;;5031271;28;20064;-55
2023/06/14 04:31:08;;;;;;;25.23;23.90;;;;;;;;;;5031802;28;20128;-56
2023/06/14 04:33:43;;;;;;;27.95;26.45;;;;;;;;;;5035366;28;20271;-55
2023/06/14 04:36:11;;;;;;;23.45;22.15;;;;;;;;;;5034110;28;20048;-55
2023/06/14 04:38:37;;;;;;;22.27;21.08;;;;;;;;;;5037044;28;20116;-53
2023/06/14 04:41:03;;;;;;;20.85;19.73;;;;;;;;;;5032523;28;20504;-67
2023/06/14 04:43:28;;;;;;;22.70;21.50;;;;;;;;;;5032710;28;20128;-67
2023/06/14 04:45:54;;;;;;;24.95;23.58;;;;;;;;;;5037264;28;20036;-66
2023/06/14 04:48:21;;;;;;;34.97;33.15;;;;;;;;;;5035828;28;20040;-66
2023/06/14 04:50:46;;;;;;;29.05;27.50;;;;;;;;;;5032263;28;20117;-56
2023/06/14 04:53:12;;;;;;;24.02;22.73;;;;;;;;;;5035504;28;20439;-56
2023/06/14 04:55:38;;;;;;;35.97;34.10;;;;;;;;;;5043000;28;20164;-55
2023/06/14 04:58:03;;;;;;;33.55;31.52;;;;;;;;;;5032455;28;20652;-55
2023/06/14 05:00:30;;;;;;;28.00;26.50;;;;;;;;;;5034050;28;20632;-56
2023/06/14 05:02:56;;;;;;;28.52;27.00;;;;;;;;;;5034223;28;20037;-54
2023/06/14 05:05:22;;;;;;;27.30;25.88;;;;;;;;;;5035049;28;20037;-56
2023/06/14 05:07:48;;;;;;;27.73;26.20;;;;;;;;;;5034460;28;20620;-55
2023/06/14 05:10:13;;;;;;;27.80;25.27;;;;;;;;;;5031667;28;20029;-54
2023/06/14 05:12:38;;;;;;;31.98;30.33;;;;;;;;;;5034452;28;20057;-56
2023/06/14 05:15:04;;;;;;;32.25;30.58;;;;;;;;;;5033291;28;20037;-55
2023/06/14 05:17:30;;;;;;;39.83;37.42;;;;;;;;;;5035106;28;20034;-54
2023/06/14 05:19:58;;;;;;;40.55;38.47;;;;;;;;;;5033443;28;20029;-55
2023/06/14 05:22:23;;;;;;;39.70;37.65;;;;;;;;;;5037247;28;20084;-55
2023/06/14 05:24:48;;;;;;;37.33;35.28;;;;;;;;;;5034695;28;20061;-55
2023/06/14 05:27:14;;;;;;;40.72;38.63;;;;;;;;;;5032891;28;20519;-54
2023/06/14 05:29:40;;;;;;;42.47;40.20;;;;;;;;;;5033060;28;20091;-55
2023/06/14 05:32:05;;;;;;;45.10;42.78;;;;;;;;;;5037330;28;20033;-67
2023/06/14 05:34:31;;;;;;;47.47;45.05;;;;;;;;;;5032592;28;20133;-67
2023/06/14 05:36:56;;;;;;;45.05;42.70;;;;;;;;;;5035462;28;20400;-67
2023/06/14 05:39:24;;;;;;;51.25;48.63;;;;;;;;;;5031020;28;20037;-67
2023/06/14 05:41:49;;;;;;;52.08;49.45;;;;;;;;;;5032896;28;20041;-67
2023/06/14 05:44:15;;;;;;;58.55;55.60;;;;;;;;;;5031241;28;20038;-66
2023/06/14 05:46:40;;;;;;;62.22;59.08;;;;;;;;;;5034399;28;20026;-68
2023/06/14 05:49:06;;;;;;;69.18;65.72;;;;;;;;;;5034669;28;20386;-66
2023/06/14 05:51:31;;;;;;;74.70;70.95;;;;;;;;;;5037348;28;20536;-56
2023/06/14 05:53:57;;;;;;;66.68;63.33;;;;;;;;;;5039834;28;20543;-54
2023/06/14 05:56:22;;;;;;;73.40;69.47;;;;;;;;;;5039014;28;20522;-53
2023/06/14 05:58:49;;;;;;;73.38;69.63;;;;;;;;;;5038308;28;20558;-67
2023/06/14 06:01:14;;;;;;;79.05;75.10;;;;;;;;;;5033535;28;20087;-67
2023/06/14 06:03:40;;;;;;;77.30;73.25;;;;;;;;;;5032731;28;20037;-55
2023/06/14 06:06:05;;;;;;;82.07;77.97;;;;;;;;;;5035574;28;20041;-54
2023/06/14 06:08:32;;;;;;;83.47;79.32;;;;;;;;;;5036551;28;20119;-67
2023/06/14 06:10:57;;;;;;;83.82;79.68;;;;;;;;;;5037328;28;20033;-67
2023/06/14 06:13:23;;;;;;;84.53;80.30;;;;;;;;;;5035072;28;20378;-56
2023/06/14 06:15:48;;;;;;;82.72;78.63;;;;;;;;;;5035950;28;20431;-52
2023/06/14 06:18:13;;;;;;;82.70;78.57;;;;;;;;;;5035663;28;20512;-55
2023/06/14 06:20:39;;;;;;;92.15;87.47;;;;;;;;;;5037326;28;20529;-66
2023/06/14 06:23:04;;;;;;;90.63;86.13;;;;;;;;;;5036441;28;20049;-67
2023/06/14 06:25:31;;;;;;;96.15;91.10;;;;;;;;;;5038165;28;20073;-67
2023/06/14 06:27:57;;;;;;;90.68;86.18;;;;;;;;;;5038327;28;20092;-65
2023/06/14 06:30:23;;;;;;;94.07;89.43;;;;;;;;;;5038652;28;20091;-65
2023/06/14 06:32:48;;;;;;;94.53;89.80;;;;;;;;;;5038787;28;20430;-65
2023/06/14 06:35:14;;;;;;;89.97;85.50;;;;;;;;;;5039997;28;20028;-50
2023/06/14 06:37:41;;;;;;;104.57;99.32;;;;;;;;;;5035317;28;20044;-54
2023/06/14 06:40:08;;;;;;;105.15;99.93;;;;;;;;;;5038314;28;20077;-54
2023/06/14 06:42:34;;;;;;;108.25;102.88;;;;;;;;;;5037997;28;20025;-54
2023/06/14 06:44:59;;;;;;;108.82;103.38;;;;;;;;;;5036811;28;20446;-65
2023/06/14 06:47:25;;;;;;;107.75;102.32;;;;;;;;;;5030081;28;20040;-65
2023/06/14 06:49:50;;;;;;;110.70;105.07;;;;;;;;;;5036747;28;20029;-66
2023/06/14 06:52:16;;;;;;;109.50;104.00;;;;;;;;;;5036430;28;20056;-49
2023/06/14 06:54:41;;;;;;;112.28;106.68;;;;;;;;;;5037180;28;20068;-51
2023/06/14 06:57:07;;;;;;;124.53;118.32;;;;;;;;;;5034576;28;20051;-52
2023/06/14 06:59:33;;;;;;;128.95;122.50;;;;;;;;;;5037318;28;20029;-55
2023/06/14 07:01:58;;;;;;;124.32;118.18;;;;;;;;;;5033924;28;20598;-53
2023/06/14 07:04:24;;;;;;;129.73;123.30;;;;;;;;;;5038608;28;20089;-54
2023/06/14 07:06:49;;;;;;;111.25;105.72;;;;;;;;;;5040892;28;20485;-49
2023/06/14 07:09:16;;;;;;;132.82;126.25;;;;;;;;;;5033947;28;20473;-50
2023/06/14 07:11:43;;;;;;;141.80;134.80;;;;;;;;;;5037116;28;20037;-50
2023/06/14 07:14:09;;;;;;;99.78;94.85;;;;;;;;;;5034630;28;20041;-51
2023/06/14 07:16:34;;;;;;;128.93;122.57;;;;;;;;;;5036623;28;20043;-50
2023/06/14 07:19:02;;;;;;;118.70;112.82;;;;;;;;;;5035830;28;20040;-53
2023/06/14 07:21:27;;;;;;;112.03;106.47;;;;;;;;;;5035372;28;20033;-53
2023/06/14 07:23:53;;;;;;;71.55;67.90;;;;;;;;;;5036403;28;20103;-50
2023/06/14 07:26:19;;;;;;;106.03;100.78;;;;;;;;;;5040148;28;20046;-53
2023/06/14 07:28:44;;;;;;;94.43;89.72;;;;;;;;;;5038343;28;20108;-49
2023/06/14 07:31:10;;;;;;;54.30;51.58;;;;;;;;;;5036377;28;20112;-51
2023/06/14 07:33:36;;;;;;;43.97;41.72;;;;;;;;;;5033911;28;20037;-52
2023/06/14 07:36:02;;;;;;;57.47;54.58;;;;;;;;;;5036647;28;20806;-51
2023/06/14 07:38:28;;;;;;;184.75;175.65;;;;;;;;;;5033590;28;20116;-54
2023/06/14 07:40:53;;;;;;;64.32;61.05;;;;;;;;;;5033308;28;20033;-53
2023/06/14 07:43:18;;;;;;;34.55;32.78;;;;;;;;;;5037351;28;20071;-50
2023/06/14 07:45:44;;;;;;;33.65;31.88;;;;;;;;;;5036926;28;20036;-53
2023/06/14 07:48:09;;;;;;;35.47;33.65;;;;;;;;;;5036032;28;20115;-54
2023/06/14 07:50:35;;;;;;;37.45;35.53;;;;;;;;;;5035807;28;20124;-53
2023/06/14 07:53:00;;;;;;;35.53;33.65;;;;;;;;;;5034290;28;20106;-51
2023/06/14 07:55:26;;;;;;;37.70;35.65;;;;;;;;;;5038451;28;20359;-51
2023/06/14 07:57:52;;;;;;;37.38;35.45;;;;;;;;;;5032749;28;20622;-48
2023/06/14 08:00:19;;;;;;;36.00;34.10;;;;;;;;;;5036592;28;20141;-52
2023/06/14 08:02:45;;;;;;;38.40;36.40;;;;;;;;;;5034840;28;20044;-52
2023/06/14 08:05:11;;;;;;;41.80;39.63;;;;;;;;;;5037109;28;20254;-53
2023/06/14 08:07:38;;;;;;;42.58;40.38;;;;;;;;;;5037271;28;20044;-64
2023/06/14 08:10:07;;;;;;;41.15;39.05;;;;;;;;;;5034882;28;20097;-64
2023/06/14 08:12:34;;;;;;;49.83;47.33;;;;;;;;;;5035105;28;20125;-64
2023/06/14 08:15:00;;;;;;;41.90;39.78;;;;;;;;;;5036345;28;20039;-65
2023/06/14 08:17:26;;;;;;;50.95;48.40;;;;;;;;;;5035742;28;20466;-64
2023/06/14 08:19:51;;;;;;;62.08;58.95;;;;;;;;;;5032777;28;20037;-64
2023/06/14 08:22:18;;;;;;;63.53;60.38;;;;;;;;;;5035031;28;20366;-63
2023/06/14 08:24:44;;;;;;;63.70;60.55;;;;;;;;;;5032640;28;20119;-64
2023/06/14 08:27:10;;;;;;;66.50;63.03;;;;;;;;;;5033789;28;20120;-64
2023/06/14 08:29:35;;;;;;;66.40;63.08;;;;;;;;;;5034401;28;20163;-64
2023/06/14 08:32:01;;;;;;;80.88;76.88;;;;;;;;;;5035701;28;20122;-63
2023/06/14 08:34:27;;;;;;;61.45;58.35;;;;;;;;;;5036023;28;20056;-63
2023/06/14 08:36:52;;;;;;;66.80;63.50;;;;;;;;;;5035202;28;20069;-63
2023/06/14 08:39:17;;;;;;;69.97;66.50;;;;;;;;;;5034992;28;20040;-64
2023/06/14 08:41:48;;;;;;;63.78;60.60;;;;;;;;;;5035521;28;20097;-63
2023/06/14 08:44:15;;;;;;;65.60;62.20;;;;;;;;;;5035765;28;20033;-63
2023/06/14 08:46:42;;;;;;;64.60;61.38;;;;;;;;;;5033717;28;20037;-64
2023/06/14 08:49:10;;;;;;;71.70;68.15;;;;;;;;;;5033025;28;20029;-64
2023/06/14 08:51:36;;;;;;;98.47;93.63;;;;;;;;;;5035862;28;20043;-65
2023/06/14 08:54:03;;;;;;;105.03;99.57;;;;;;;;;;5033280;28;20037;-64
2023/06/14 08:56:30;;;;;;;160.73;152.85;;;;;;;;;;5035384;28;20030;-64
2023/06/14 08:59:00;;;;;;;146.95;139.70;;;;;;;;;;5035423;28;20090;-65
2023/06/14 09:01:26;;;;;;;134.02;127.43;;;;;;;;;;5034830;28;20108;-65
2023/06/14 09:03:54;;;;;;;78.40;74.53;;;;;;;;;;5034334;28;20110;-65
2023/06/14 09:06:22;;;;;;;158.13;150.43;;;;;;;;;;5033619;28;20037;-63
2023/06/14 09:08:48;;;;;;;188.45;179.30;;;;;;;;;;5033590;28;20067;-65
2023/06/14 09:11:18;;;;;;;201.90;192.07;;;;;;;;;;5034613;28;20397;-64
2023/06/14 09:13:44;;;;;;;98.03;93.22;;;;;;;;;;5035065;28;20099;-65
2023/06/14 09:16:09;;;;;;;246.90;234.93;;;;;;;;;;5036936;28;20045;-65
2023/06/14 09:18:47;;;;;;;268.83;255.75;;;;;;;;;;5034916;28;20037;-66
2023/06/14 09:21:14;;;;;;;243.60;231.57;;;;;;;;;;5033873;28;20080;-64
2023/06/14 09:23:48;;;;;;;253.75;241.45;;;;;;;;;;5034330;28;20090;-63
2023/06/14 09:26:15;;;;;;;266.70;253.73;;;;;;;;;;5040673;28;20057;-62
2023/06/14 09:28:48;;;;;;;232.23;220.95;;;;;;;;;;5040185;28;20075;-63
2023/06/14 09:31:15;;;;;;;258.13;245.63;;;;;;;;;;5041679;28;20124;-63
2023/06/14 09:33:48;;;;;;;237.80;226.23;;;;;;;;;;5038948;28;20095;-64
2023/06/14 09:36:24;;;;;;;269.05;256.00;;;;;;;;;;5037805;28;20039;-63
2023/06/14 09:39:00;;;;;;;267.92;254.90;;;;;;;;;;5038314;28;20041;-63
2023/06/14 09:41:36;;;;;;;262.00;249.23;;;;;;;;;;5038249;28;20060;-63
2023/06/14 09:44:03;;;;;;;247.20;235.25;;;;;;;;;;5039748;28;20490;-63
2023/06/14 09:46:30;;;;;;;265.73;252.82;;;;;;;;;;5040193;28;20045;-63
2023/06/14 09:48:56;;;;;;;269.00;255.85;;;;;;;;;;5040082;28;20047;-63
2023/06/14 09:51:23;;;;;;;244.88;232.95;;;;;;;;;;5043229;28;20040;-63
2023/06/14 09:53:49;;;;;;;131.95;125.43;;;;;;;;;;5039097;28;20044;-63
2023/06/14 09:56:29;;;;;;;248.32;236.25;;;;;;;;;;5036802;28;20079;-64
2023/06/14 09:58:57;;;;;;;84.63;80.43;;;;;;;;;;5040361;28;20035;-63
2023/06/14 10:01:27;;;;;;;134.10;127.45;;;;;;;;;;5040453;28;20037;-64
2023/06/14 10:04:14;;;;;;;157.60;149.85;;;;;;;;;;5037703;28;20037;-64
2023/06/14 10:06:41;;;;;;;110.28;104.85;;;;;;;;;;5038383;28;20124;-64
2023/06/14 10:09:11;;;;;;;43.15;40.95;;;;;;;;;;5037909;28;20475;-63
2023/06/14 10:11:43;;;;;;;246.13;234.10;;;;;;;;;;5047286;28;20036;-64
2023/06/14 10:14:10;;;;;;;100.30;95.28;;;;;;;;;;5039679;28;20037;-64
2023/06/14 10:17:04;;;;;;;48.85;46.40;;;;;;;;;;5038198;28;20478;-64
2023/06/14 10:19:35;;;;;;;93.43;88.82;;;;;;;;;;5041974;28;20033;-65
2023/06/14 10:22:02;;;;;;;;;;;;;;;;;;5041636;28;20037;-65
2023/06/14 10:24:38;;;;;;;22.00;20.80;;;;;;;;;;5042349;28;19916;-64
2023/06/14 10:27:10;;;;;;;20.30;19.20;;;;;;;;;;5038141;28;20029;-65
2023/06/14 10:29:58;;;;;;;22.98;21.73;;;;;;;;;;5038124;28;20041;-65
2023/06/14 10:32:25;;;;;;;19.80;18.65;;;;;;;;;;5042647;28;20040;-63
2023/06/14 10:34:55;;;;;;;22.30;21.10;;;;;;;;;;5038092;28;20079;-64
2023/06/14 10:37:21;;;;;;;21.88;20.67;;;;;;;;;;5033164;28;20526;-64
2023/06/14 10:39:47;;;;;;;18.10;17.10;;;;;;;;;;5033831;28;20071;-64
2023/06/14 10:42:13;;;;;;;19.35;18.25;;;;;;;;;;5035186;28;20091;-65
2023/06/14 10:44:51;;;;;;;27.02;25.63;;;;;;;;;;5037986;28;20104;-65
2023/06/14 10:47:22;;;;;;;22.15;20.95;;;;;;;;;;5039138;28;20039;-62
2023/06/14 10:49:50;;;;;;;17.38;16.38;;;;;;;;;;5033863;28;20501;-65
2023/06/14 10:52:19;;;;;;;20.50;19.35;;;;;;;;;;5037562;28;20033;-64
2023/06/14 10:55:22;;;;;;;19.67;18.58;;;;;;;;;;5039697;28;20041;-64
2023/06/14 10:57:51;;;;;;;20.92;19.83;;;;;;;;;;5035011;28;20029;-64
2023/06/14 11:00:22;;;;;;;23.00;21.73;;;;;;;;;;5037170;28;21040;-63
2023/06/14 11:03:21;;;;;;;24.00;22.70;;;;;;;;;;5037717;28;20033;-63
2023/06/14 11:05:54;;;;;;;24.35;23.05;;;;;;;;;;5034757;28;20450;-63
2023/06/14 11:08:20;;;;;;;24.17;22.88;;;;;;;;;;5035322;28;20467;-63
2023/06/14 11:10:45;;;;;;;17.55;16.55;;;;;;;;;;5033304;28;20043;-64
2023/06/14 11:13:11;;;;;;;18.98;17.95;;;;;;;;;;5036250;28;20045;-63
2023/06/14 11:15:37;;;;;;;23.70;22.35;;;;;;;;;;5037013;28;20037;-64
2023/06/14 11:18:06;;;;;;;26.27;24.88;;;;;;;;;;5036176;28;20048;-64
2023/06/14 11:20:33;;;;;;;22.45;21.25;;;;;;;;;;5033402;28;20046;-64
2023/06/14 11:22:59;;;;;;;20.98;19.85;;;;;;;;;;5036447;28;20033;-63
2023/06/14 11:25:25;;;;;;;25.63;24.23;;;;;;;;;;5033817;28;20044;-63
2023/06/14 11:27:50;;;;;;;21.08;19.92;;;;;;;;;;5036578;28;20426;-63
2023/06/14 11:30:16;;;;;;;20.73;19.63;;;;;;;;;;5029480;28;20032;-64
2023/06/14 11:32:42;;;;;;;24.10;22.80;;;;;;;;;;5027349;28;20374;-64
2023/06/14 11:35:09;;;;;;;20.75;19.63;;;;;;;;;;5036078;28;20056;-63
2023/06/14 11:37:37;;;;;;;23.20;21.95;;;;;;;;;;5034708;28;20037;-63
2023/06/14 11:40:06;;;;;;;21.48;20.30;;;;;;;;;;5035948;28;20106;-64
2023/06/14 11:42:31;;;;;;;22.17;20.98;;;;;;;;;;5033716;28;20045;-63
2023/06/14 11:44:56;;;;;;;21.23;20.05;;;;;;;;;;5033784;28;20367;-64
2023/06/14 11:47:22;;;;;;;23.08;21.80;;;;;;;;;;5036170;28;20124;-65
2023/06/14 11:49:48;;;;;;;21.60;20.40;;;;;;;;;;5034833;28;20107;-65
2023/06/14 11:52:14;;;;;;;19.17;18.13;;;;;;;;;;5035224;28;20029;-64
2023/06/14 11:54:40;;;;;;;19.85;18.55;;;;;;;;;;5037146;28;20112;-65
2023/06/14 11:57:07;;;;;;;21.33;20.13;;;;;;;;;;5034085;28;20459;-63
2023/06/14 11:59:37;;;;;;;21.45;20.27;;;;;;;;;;5036116;28;20668;-64
2023/06/14 12:02:03;;;;;;;;;;;;;;;;;;5038059;28;20039;-64
2023/06/14 12:04:29;;;;;;;62.40;59.30;;;;;;;;;;5035534;28;20388;-64
2023/06/14 12:06:57;;;;;;;53.17;50.47;;;;;;;;;;5032257;28;20692;-64
2023/06/14 12:09:23;;;;;;;59.38;56.38;;;;;;;;;;5036432;28;20037;-64
2023/06/14 12:11:49;;;;;;;44.00;41.78;;;;;;;;;;5033244;28;20026;-64
2023/06/14 12:14:16;;;;;;;50.80;48.22;;;;;;;;;;5038827;28;20041;-63
2023/06/14 12:16:42;;;;;;;75.95;72.15;;;;;;;;;;5034504;28;20053;-64
2023/06/14 12:19:17;;;;;;;28.05;26.55;;;;;;;;;;5028763;28;20034;-64
2023/06/14 12:21:48;;;;;;;26.75;25.35;;;;;;;;;;5032127;28;20037;-63
2023/06/14 12:24:13;;;;;;;26.08;24.67;;;;;;;;;;5032658;28;20088;-63
2023/06/14 12:26:40;;;;;;;33.10;31.40;;;;;;;;;;5031018;28;20504;-64
2023/06/14 12:29:07;;;;;;;28.98;27.42;;;;;;;;;;5028802;28;20123;-63
2023/06/14 12:31:32;;;;;;;31.67;30.02;;;;;;;;;;5033853;28;20040;-64
2023/06/14 12:33:58;;;;;;;29.63;28.05;;;;;;;;;;5036294;28;20029;-64
2023/06/14 12:36:23;;;;;;;28.65;27.15;;;;;;;;;;5034992;28;20052;-49
2023/06/14 12:38:49;;;;;;;28.77;27.25;;;;;;;;;;5032879;28;20691;-51
2023/06/14 12:41:15;;;;;;;25.15;23.77;;;;;;;;;;5033090;28;20040;-64
2023/06/14 12:43:41;;;;;;;29.10;27.60;;;;;;;;;;5032447;28;20029;-65
2023/06/14 12:46:06;;;;;;;26.30;24.80;;;;;;;;;;5033969;28;20052;-64
2023/06/14 12:48:32;;;;;;;23.20;21.98;;;;;;;;;;5036253;28;20040;-64
2023/06/14 12:50:57;;;;;;;25.20;23.83;;;;;;;;;;5033784;28;21913;-64
2023/06/14 12:53:23;;;;;;;23.40;22.13;;;;;;;;;;5035732;28;20151;-64
2023/06/14 12:55:49;;;;;;;23.77;22.48;;;;;;;;;;5034217;28;20051;-51
2023/06/14 12:58:16;;;;;;;24.38;23.08;;;;;;;;;;5034571;28;20462;-51
2023/06/14 13:00:42;;;;;;;25.05;23.70;;;;;;;;;;5033665;28;20049;-52
2023/06/14 13:03:07;;;;;;;25.63;24.23;;;;;;;;;;5023564;28;20044;-53
2023/06/14 13:05:33;;;;;;;26.17;24.77;;;;;;;;;;5034849;28;20052;-64
2023/06/14 13:07:59;;;;;;;39.08;36.97;;;;;;;;;;5034575;28;20037;-53
2023/06/14 13:10:25;;;;;;;26.75;25.25;;;;;;;;;;5032256;28;20436;-51
2023/06/14 13:12:51;;;;;;;25.77;24.33;;;;;;;;;;5034041;28;20085;-64
2023/06/14 13:15:17;;;;;;;24.05;22.58;;;;;;;;;;5036054;28;20043;-64
2023/06/14 13:17:43;;;;;;;21.85;20.65;;;;;;;;;;5032111;28;20033;-64
2023/06/14 13:20:09;;;;;;;26.20;24.73;;;;;;;;;;5035376;28;20041;-65
2023/06/14 13:22:35;;;;;;;27.95;25.88;;;;;;;;;;5032811;28;20033;-65
2023/06/14 13:25:01;;;;;;;28.38;26.67;;;;;;;;;;5033277;28;20115;-64
2023/06/14 13:27:27;;;;;;;27.38;25.90;;;;;;;;;;5035470;28;20040;-49
2023/06/14 13:29:53;;;;;;;22.52;21.33;;;;;;;;;;5033141;28;20107;-64
2023/06/14 13:32:20;;;;;;;21.45;20.25;;;;;;;;;;5034574;28;20029;-64
2023/06/14 13:34:45;;;;;;;27.23;25.83;;;;;;;;;;5032665;28;20029;-50
2023/06/14 13:37:11;;;;;;;24.38;23.08;;;;;;;;;;5035922;28;20254;-52
2023/06/14 13:39:37;;;;;;;22.27;21.05;;;;;;;;;;5033398;28;20041;-64
2023/06/14 13:42:03;;;;;;;24.13;22.83;;;;;;;;;;5030947;28;20116;-64
2023/06/14 13:44:28;;;;;;;26.63;25.23;;;;;;;;;;5032774;28;20118;-63
2023/06/14 13:46:53;;;;;;;23.98;22.67;;;;;;;;;;5032308;28;20037;-64
2023/06/14 13:49:19;;;;;;;24.65;23.35;;;;;;;;;;5034321;28;20316;-51
2023/06/14 13:51:44;;;;;;;27.25;25.75;;;;;;;;;;5034727;28;20401;-52
2023/06/14 13:54:12;;;;;;;22.35;21.15;;;;;;;;;;5034530;28;20573;-50
2023/06/14 13:56:37;;;;;;;21.85;20.65;;;;;;;;;;5031596;28;20140;-52
2023/06/14 13:59:03;;;;;;;35.10;33.30;;;;;;;;;;5030322;28;20179;-52
2023/06/14 14:01:28;;;;;;;35.60;33.70;;;;;;;;;;5034106;28;20034;-51
2023/06/14 14:03:54;;;;;;;36.90;34.95;;;;;;;;;;5033720;28;20522;-52
2023/06/14 14:06:20;;;;;;;40.97;38.88;;;;;;;;;;5034758;28;20534;-51
2023/06/14 14:08:45;;;;;;;37.28;35.35;;;;;;;;;;5030538;28;20048;-50
2023/06/14 14:11:12;;;;;;;44.22;41.88;;;;;;;;;;5035007;28;20042;-50
2023/06/14 14:13:38;;;;;;;38.60;36.60;;;;;;;;;;5036433;28;20036;-53